Time;durP1;ratioP1;P1;durP2;ratioP2;P2;SDS_P1;SDS_P2;PMS_P1;PMS_P2;Temp;Humidity;BMP_temperature;BMP_pressure;BME280_temperature;BME280_humidity;BME280_pressure;Samples;Min_cycle;Max_cycle;Signal;HPM_P1;HPM_P2
2022/10/02 00:01:32;;;;;;;9.40;6.90;;;;;;;10.60;82.80;99223.08;106167;1270;138285;-79
2022/10/02 00:04:08;;;;;;;8.70;7.10;;;;;;;10.59;82.69;99223.12;106536;1271;105942;-79
2022/10/02 00:06:46;;;;;;;8.50;6.80;;;;;;;10.57;82.82;99221.59;106160;1270;138736;-78
2022/10/02 00:09:26;;;;;;;9.80;7.30;;;;;;;10.57;82.95;99223.02;106188;1271;97845;-79
2022/10/02 00:12:04;;;;;;;9.70;7.10;;;;;;;10.55;83.07;99217.88;106262;1271;97797;-78
2022/10/02 00:14:40;;;;;;;9.90;6.60;;;;;;;10.55;83.01;99224.35;106255;1271;111468;-78
2022/10/02 00:17:20;;;;;;;8.60;7.00;;;;;;;10.53;83.02;99226.52;106170;1272;108898;-79
2022/10/02 00:19:56;;;;;;;10.10;7.00;;;;;;;10.51;83.23;99226.12;106169;1270;138522;-80
2022/10/02 00:22:45;;;;;;;8.90;7.30;;;;;;;10.50;83.32;99231.38;106096;1272;97823;-79
2022/10/02 00:25:26;;;;;;;9.50;7.60;;;;;;;10.49;83.51;99232.09;106166;1271;138429;-79
2022/10/02 00:28:21;;;;;;;9.70;7.40;;;;;;;10.49;83.50;99234.55;106282;1270;112687;-79
2022/10/02 00:31:28;;;;;;;10.80;8.20;;;;;;;10.48;83.54;99233.73;106169;1270;140323;-80
2022/10/02 00:34:18;;;;;;;8.80;7.50;;;;;;;10.46;83.53;99228.77;105967;1276;107971;-78
2022/10/02 00:37:01;;;;;;;10.40;8.20;;;;;;;10.44;83.61;99236.55;105863;1276;138530;-79
2022/10/02 00:39:43;;;;;;;11.70;8.30;;;;;;;10.42;83.58;99238.22;106005;1276;97862;-79
2022/10/02 00:42:50;;;;;;;10.20;8.40;;;;;;;10.41;83.81;99236.15;105895;1275;139060;-78
2022/10/02 00:45:39;;;;;;;9.60;8.10;;;;;;;10.40;83.82;99239.33;105989;1276;108687;-79
2022/10/02 00:48:28;;;;;;;10.60;8.80;;;;;;;10.41;84.01;99243.27;105803;1276;140055;-78
2022/10/02 00:51:12;;;;;;;13.70;9.10;;;;;;;10.42;84.13;99243.08;106060;1276;97814;-77
2022/10/02 00:53:53;;;;;;;11.20;8.90;;;;;;;10.41;84.12;99245.88;105998;1276;97852;-78
2022/10/02 00:56:33;;;;;;;11.00;8.60;;;;;;;10.41;84.10;99243.98;106359;1276;138256;-78
2022/10/02 00:59:35;;;;;;;10.80;9.00;;;;;;;10.41;84.12;99240.67;106004;1276;108870;-80
2022/10/02 01:02:15;;;;;;;11.60;9.00;;;;;;;10.39;84.11;99242.68;105865;1276;138639;-80
2022/10/02 01:04:48;;;;;;;12.30;8.90;;;;;;;10.39;84.32;99243.19;106005;1274;97960;-79
2022/10/02 01:07:20;;;;;;;13.50;9.80;;;;;;;10.40;84.28;99248.02;105957;1276;140130;-78
2022/10/02 01:09:53;;;;;;;11.20;9.10;;;;;;;10.41;84.37;99246.04;106041;1276;112551;-79
2022/10/02 01:12:26;;;;;;;15.10;9.20;;;;;;;10.41;84.30;99249.88;106100;1271;138687;-79
2022/10/02 01:14:58;;;;;;;11.80;9.60;;;;;;;10.41;84.32;99249.16;106306;1270;108874;-80
2022/10/02 01:17:33;;;;;;;13.20;9.60;;;;;;;10.43;84.36;99247.73;106278;1270;97841;-80
2022/10/02 01:20:12;;;;;;;14.00;10.40;;;;;;;10.42;84.33;99249.15;106198;1270;139188;-79
2022/10/02 01:22:51;;;;;;;14.10;9.90;;;;;;;10.43;84.46;99250.48;106266;1272;111876;-80
2022/10/02 01:25:23;;;;;;;17.70;10.30;;;;;;;10.42;84.29;99251.91;106223;1270;139961;-79
2022/10/02 01:27:56;;;;;;;13.50;10.20;;;;;;;10.42;84.46;99253.66;106301;1270;109700;-79
2022/10/02 01:30:30;;;;;;;16.20;11.20;;;;;;;10.43;84.44;99254.98;106158;1270;139028;-79
2022/10/02 01:33:09;;;;;;;12.60;10.30;;;;;;;10.44;84.58;99255.48;106317;1270;97848;-79
2022/10/02 01:35:42;;;;;;;13.30;10.80;;;;;;;10.45;84.62;99259.58;106227;1272;112412;-79
2022/10/02 01:38:18;;;;;;;14.90;10.70;;;;;;;10.48;84.67;99258.23;106163;1270;139008;-78
2022/10/02 01:40:50;;;;;;;14.30;10.50;;;;;;;10.49;84.65;99262.52;106224;1270;109553;-78
2022/10/02 01:43:25;;;;;;;13.40;10.30;;;;;;;10.49;84.64;99266.84;106164;1270;139325;-79
2022/10/02 01:46:15;;;;;;;12.90;10.70;;;;;;;10.50;84.65;99267.86;106267;1270;97821;-78
2022/10/02 01:48:53;;;;;;;13.70;10.00;;;;;;;10.50;84.54;99270.80;106031;1272;138817;-79
2022/10/02 01:51:41;;;;;;;15.80;10.20;;;;;;;10.51;84.56;99273.59;106244;1270;108931;-78
2022/10/02 01:54:25;;;;;;;12.20;10.10;;;;;;;10.51;84.63;99271.79;106111;1270;138946;-79
2022/10/02 01:57:09;;;;;;;12.30;10.00;;;;;;;10.51;84.44;99273.21;106247;1270;97846;-79
2022/10/02 01:59:50;;;;;;;12.50;10.10;;;;;;;10.50;84.51;99275.52;106318;1270;97819;-79
2022/10/02 02:02:28;;;;;;;13.50;9.60;;;;;;;10.49;84.58;99278.16;106499;1262;138824;-79
2022/10/02 02:05:08;;;;;;;12.00;9.80;;;;;;;10.50;84.57;99284.88;106010;1274;108004;-79
2022/10/02 02:07:49;;;;;;;14.20;10.00;;;;;;;10.50;84.53;99285.92;106128;1274;138738;-78
2022/10/02 02:10:26;;;;;;;11.40;10.00;;;;;;;10.50;84.61;99288.02;106146;1272;97982;-79
2022/10/02 02:13:04;;;;;;;12.50;9.70;;;;;;;10.49;84.53;99292.23;106086;1272;139066;-78
2022/10/02 02:15:41;;;;;;;13.60;9.50;;;;;;;10.49;84.59;99295.20;106070;1274;112292;-78
2022/10/02 02:18:14;;;;;;;;;;;;;;;10.50;84.58;99297.25;106046;1272;138751;-77
2022/10/02 02:20:51;;;;;;;10.60;9.50;;;;;;;10.48;84.59;99299.77;106204;1274;108603;-78
2022/10/02 02:23:28;;;;;;;12.40;10.10;;;;;;;10.49;84.77;99303.19;106224;1274;97847;-78
2022/10/02 02:26:05;;;;;;;12.10;10.00;;;;;;;10.50;84.72;99303.31;106343;1274;140059;-78
2022/10/02 02:28:41;;;;;;;13.10;10.00;;;;;;;10.51;84.71;99305.34;106124;1273;111447;-77
2022/10/02 02:31:16;;;;;;;13.50;10.90;;;;;;;10.52;84.72;99308.79;105997;1274;139010;-77
2022/10/02 02:33:52;;;;;;;15.30;11.20;;;;;;;10.53;84.74;99307.17;106121;1273;109246;-78
2022/10/02 02:36:30;;;;;;;12.50;11.00;;;;;;;10.52;84.74;99312.95;106053;1274;139191;-77
2022/10/02 02:39:08;;;;;;;15.50;10.90;;;;;;;10.53;84.80;99309.41;106144;1274;97899;-77
2022/10/02 02:41:47;;;;;;;14.00;11.60;;;;;;;10.55;84.85;99308.65;106135;1274;111868;-78
2022/10/02 02:44:26;;;;;;;13.90;11.10;;;;;;;10.55;84.77;99313.98;105944;1274;140684;-76
2022/10/02 02:47:05;;;;;;;13.20;11.10;;;;;;;10.56;84.74;99315.34;106082;1274;108887;-77
2022/10/02 02:49:44;;;;;;;12.70;11.20;;;;;;;10.58;84.80;99313.37;106120;1274;139327;-78
2022/10/02 02:52:20;;;;;;;14.30;11.60;;;;;;;10.57;84.63;99314.11;105872;1273;406882;-77
2022/10/02 02:54:59;;;;;;;13.40;11.70;;;;;;;10.57;84.79;99312.89;106024;1274;138785;-77
2022/10/02 02:57:36;;;;;;;12.90;11.30;;;;;;;10.57;84.83;99310.47;106144;1272;108017;-77
2022/10/02 03:00:11;;;;;;;13.00;11.30;;;;;;;10.56;84.84;99311.54;106024;1274;139349;-78
2022/10/02 03:02:43;;;;;;;14.80;11.80;;;;;;;10.57;84.85;99308.20;106684;1274;97841;-78
2022/10/02 03:05:19;;;;;;;14.20;11.80;;;;;;;10.56;84.78;99312.22;106129;1273;97944;-77
2022/10/02 03:07:55;;;;;;;13.10;11.70;;;;;;;10.56;84.75;99312.74;106065;1273;138608;-77
2022/10/02 03:10:40;;;;;;;14.80;11.80;;;;;;;10.57;84.70;99320.20;106131;1273;109043;-78
2022/10/02 03:13:26;;;;;;;13.70;12.00;;;;;;;10.56;84.85;99320.55;105921;1274;138900;-79
2022/10/02 03:16:13;;;;;;;13.70;11.90;;;;;;;10.56;84.91;99323.89;106139;1273;99240;-77
2022/10/02 03:19:00;;;;;;;13.10;11.60;;;;;;;10.57;84.92;99326.29;106112;1271;139078;-77
2022/10/02 03:21:38;;;;;;;14.20;11.60;;;;;;;10.56;84.95;99328.05;106231;1273;112366;-76
2022/10/02 03:24:17;;;;;;;14.50;11.20;;;;;;;10.55;84.95;99327.05;106079;1273;139663;-76
2022/10/02 03:26:59;;;;;;;17.20;12.10;;;;;;;10.54;84.88;99326.75;106210;1271;107839;-77
2022/10/02 03:29:35;;;;;;;15.90;11.70;;;;;;;10.53;84.90;99323.15;106232;1271;97905;-77
2022/10/02 03:32:09;;;;;;;14.50;11.80;;;;;;;10.52;84.90;99325.14;106069;1274;138856;-80
2022/10/02 03:34:41;;;;;;;14.00;11.30;;;;;;;10.50;84.95;99325.02;106209;1271;112580;-78
2022/10/02 03:37:14;;;;;;;12.60;11.40;;;;;;;10.50;85.00;99327.45;105989;1272;138876;-78
2022/10/02 03:39:50;;;;;;;13.00;11.40;;;;;;;10.50;85.13;99321.91;106094;1273;108315;-79
2022/10/02 03:42:26;;;;;;;15.90;12.60;;;;;;;10.49;85.04;99327.36;106055;1273;139495;-78
2022/10/02 03:44:59;;;;;;;15.10;12.00;;;;;;;10.50;85.28;99331.12;106079;1273;97839;-77
2022/10/02 03:47:31;;;;;;;12.50;11.00;;;;;;;10.50;85.18;99332.16;106155;1273;112437;-78
2022/10/02 03:50:04;;;;;;;17.10;11.20;;;;;;;10.51;85.29;99332.12;105996;1272;138879;-78
2022/10/02 03:52:36;;;;;;;14.80;12.20;;;;;;;10.52;85.30;99333.65;106049;1274;107806;-76
2022/10/02 03:55:19;;;;;;;18.50;12.80;;;;;;;10.51;85.32;99333.16;106020;1272;139611;-77
2022/10/02 03:57:54;;;;;;;15.20;12.40;;;;;;;10.51;85.26;99333.83;107684;1271;96223;-78
2022/10/02 04:00:32;;;;;;;13.70;12.30;;;;;;;10.52;85.30;99335.55;107147;1272;139178;-78
2022/10/02 04:03:11;;;;;;;15.40;12.40;;;;;;;10.52;85.27;99335.54;106823;1274;109321;-77
2022/10/02 04:05:50;;;;;;;16.70;12.50;;;;;;;10.53;85.38;99335.68;107685;1272;107912;-78
2022/10/02 04:08:28;;;;;;;16.40;13.00;;;;;;;10.53;85.38;99334.46;107536;1272;138819;-77
2022/10/02 04:11:07;;;;;;;19.40;13.00;;;;;;;10.54;85.41;99335.28;106892;1272;98120;-76
2022/10/02 04:13:45;;;;;;;16.90;13.10;;;;;;;10.55;85.37;99340.80;105986;1273;140104;-76
2022/10/02 04:16:24;;;;;;;15.60;13.10;;;;;;;10.57;85.47;99341.23;106172;1272;109029;-77
2022/10/02 04:19:00;;;;;;;16.00;13.80;;;;;;;10.57;85.43;99340.86;105964;1272;138858;-77
2022/10/02 04:21:43;;;;;;;15.00;13.40;;;;;;;10.57;85.47;99343.63;106024;1274;97881;-79
2022/10/02 04:24:21;;;;;;;17.30;14.60;;;;;;;10.56;85.56;99344.38;105921;1274;138762;-77
2022/10/02 04:27:05;;;;;;;15.80;14.20;;;;;;;10.57;85.75;99348.00;106104;1272;111954;-78
2022/10/02 04:29:43;;;;;;;15.70;13.70;;;;;;;10.57;85.83;99348.00;106107;1272;109214;-77
2022/10/02 04:32:17;;;;;;;16.80;14.60;;;;;;;10.56;85.98;99349.77;105929;1272;138847;-78
2022/10/02 04:34:50;;;;;;;18.00;13.80;;;;;;;10.57;86.00;99349.23;107668;1273;96264;-76
2022/10/02 04:37:46;;;;;;;16.50;14.40;;;;;;;10.56;86.00;99350.81;107481;1274;138586;-77
2022/10/02 04:40:49;;;;;;;18.70;14.70;;;;;;;10.56;86.15;99349.25;107624;1274;112533;-77
2022/10/02 04:43:34;;;;;;;15.40;13.90;;;;;;;10.56;86.12;99349.09;106442;1274;138763;-78
2022/10/02 04:46:19;;;;;;;16.20;14.50;;;;;;;10.56;86.18;99351.34;106085;1273;107860;-77
2022/10/02 04:49:21;;;;;;;18.30;14.20;;;;;;;10.58;86.43;99354.39;105855;1275;138896;-78
2022/10/02 04:52:09;;;;;;;16.40;14.80;;;;;;;10.57;86.32;99355.63;106536;1274;96407;-78
2022/10/02 04:55:06;;;;;;;16.60;14.90;;;;;;;10.59;86.49;99356.96;105913;1274;139070;-77
2022/10/02 04:57:58;;;;;;;17.00;15.20;;;;;;;10.59;86.64;99359.38;105966;1274;108847;-78
2022/10/02 05:00:35;;;;;;;20.10;15.10;;;;;;;10.60;86.61;99360.76;105925;1274;138890;-77
2022/10/02 05:03:29;;;;;;;17.10;15.40;;;;;;;10.60;86.57;99364.39;106021;1274;97959;-78
2022/10/02 05:06:15;;;;;;;17.50;15.50;;;;;;;10.61;86.67;99366.11;105920;1274;98401;-78
2022/10/02 05:09:02;;;;;;;16.50;14.80;;;;;;;10.60;86.66;99369.27;106055;1274;111401;-77
2022/10/02 05:11:52;;;;;;;16.90;15.20;;;;;;;10.61;86.84;99372.18;106087;1274;108402;-76
2022/10/02 05:14:39;;;;;;;17.20;15.40;;;;;;;10.62;86.82;99374.38;105966;1274;138620;-76
2022/10/02 05:17:27;;;;;;;16.70;15.00;;;;;;;10.62;86.89;99375.59;106098;1274;98096;-76
2022/10/02 05:20:23;;;;;;;16.40;14.80;;;;;;;10.62;86.91;99379.09;105907;1274;138706;-76
2022/10/02 05:23:09;;;;;;;17.20;15.50;;;;;;;10.63;87.02;99380.96;106119;1273;112521;-76
2022/10/02 05:26:25;;;;;;;17.20;15.40;;;;;;;10.63;87.13;99385.80;105968;1274;138807;-75
2022/10/02 05:29:16;;;;;;;15.90;14.30;;;;;;;10.64;87.15;99381.77;105530;1280;108992;-76
2022/10/02 05:32:07;;;;;;;16.70;14.90;;;;;;;10.65;87.25;99382.60;106373;1279;139167;-76
2022/10/02 05:34:57;;;;;;;16.00;14.40;;;;;;;10.67;87.33;99383.17;105578;1281;97945;-77
2022/10/02 05:37:52;;;;;;;16.60;14.90;;;;;;;10.70;87.42;99383.39;105550;1279;138880;-76
2022/10/02 05:40:30;;;;;;;16.00;14.50;;;;;;;10.72;87.31;99389.19;105695;1278;109014;-76
2022/10/02 05:43:07;;;;;;;16.90;15.20;;;;;;;10.74;87.33;99391.87;105588;1279;139088;-76
2022/10/02 05:45:44;;;;;;;16.70;14.90;;;;;;;10.77;87.36;99391.06;105575;1281;98195;-76
2022/10/02 05:48:20;;;;;;;17.70;16.00;;;;;;;10.80;87.47;99393.36;105579;1281;138827;-76
2022/10/02 05:50:58;;;;;;;16.80;15.10;;;;;;;10.82;87.46;99397.11;105661;1279;112751;-77
2022/10/02 05:53:35;;;;;;;16.60;14.90;;;;;;;10.82;87.39;99399.70;105621;1281;107696;-77
2022/10/02 05:56:10;;;;;;;;;;;;;;;10.81;87.41;99400.80;105524;1281;139390;-77
2022/10/02 05:58:50;;;;;;;16.00;14.50;;;;;;;10.80;87.50;99408.13;105565;1280;98059;-77
2022/10/02 06:01:27;;;;;;;16.00;14.40;;;;;;;10.82;87.67;99403.02;105830;1273;138851;-78
2022/10/02 06:04:10;;;;;;;16.50;14.90;;;;;;;10.82;87.67;99404.91;106030;1272;111933;-78
2022/10/02 06:06:48;;;;;;;17.30;15.50;;;;;;;10.81;87.61;99405.13;105973;1273;139572;-78
2022/10/02 06:09:24;;;;;;;16.60;14.90;;;;;;;10.81;87.88;99407.21;106160;1271;108185;-77
2022/10/02 06:12:00;;;;;;;16.80;15.10;;;;;;;10.83;87.89;99414.06;106137;1273;96759;-76
2022/10/02 06:14:37;;;;;;;16.40;14.50;;;;;;;10.85;87.94;99412.56;105913;1274;138576;-77
2022/10/02 06:17:14;;;;;;;16.50;14.70;;;;;;;10.87;87.96;99413.18;106201;1273;111346;-77
2022/10/02 06:19:54;;;;;;;16.00;14.30;;;;;;;10.90;88.02;99412.17;106008;1272;138959;-77
2022/10/02 06:22:34;;;;;;;17.40;14.90;;;;;;;10.92;87.82;99412.44;106087;1272;107963;-78
2022/10/02 06:25:16;;;;;;;16.50;14.80;;;;;;;10.94;87.83;99416.18;107551;1272;140566;-77
2022/10/02 06:27:52;;;;;;;14.90;13.40;;;;;;;10.96;87.86;99410.88;107695;1272;96349;-77
2022/10/02 06:30:25;;;;;;;18.70;14.60;;;;;;;10.98;87.87;99420.52;106818;1272;139031;-76
2022/10/02 06:33:02;;;;;;;14.90;13.30;;;;;;;11.02;87.97;99422.59;106071;1271;108899;-77
2022/10/02 06:35:50;;;;;;;14.30;12.80;;;;;;;11.07;87.92;99424.78;106191;1271;108855;-77
2022/10/02 06:38:35;;;;;;;13.60;12.30;;;;;;;11.13;87.84;99424.31;106543;1272;138952;-77
2022/10/02 06:41:19;;;;;;;13.80;12.30;;;;;;;11.19;87.77;99427.36;106839;1272;97804;-77
2022/10/02 06:44:13;;;;;;;12.90;11.30;;;;;;;11.22;87.79;99431.20;106895;1272;140540;-76
2022/10/02 06:47:01;;;;;;;12.70;10.20;;;;;;;11.28;87.73;99427.60;106076;1272;107416;-77
2022/10/02 06:49:46;;;;;;;12.10;10.30;;;;;;;11.30;87.45;99424.19;106057;1272;139114;-78
2022/10/02 06:52:35;;;;;;;10.90;9.00;;;;;;;11.31;87.32;99430.60;106141;1271;97872;-77
2022/10/02 06:55:31;;;;;;;9.80;8.40;;;;;;;11.31;87.43;99429.55;106688;1272;138505;-76
2022/10/02 06:58:30;;;;;;;9.30;8.20;;;;;;;11.32;87.40;99434.92;106104;1272;112460;-77
2022/10/02 07:01:10;;;;;;;9.30;8.30;;;;;;;11.31;87.31;99438.08;106077;1272;138558;-77
2022/10/02 07:03:58;;;;;;;10.00;7.90;;;;;;;11.32;87.33;99439.08;106127;1271;108518;-77
2022/10/02 07:06:44;;;;;;;11.90;8.20;;;;;;;11.32;87.28;99437.50;106113;1270;139220;-77
2022/10/02 07:09:41;;;;;;;9.40;7.90;;;;;;;11.30;87.22;99444.54;106210;1271;97809;-76
2022/10/02 07:12:31;;;;;;;9.90;8.40;;;;;;;11.29;87.07;99451.94;106124;1269;138568;-77
2022/10/02 07:15:26;;;;;;;10.50;8.10;;;;;;;11.28;87.19;99457.89;106279;1270;109074;-77
2022/10/02 07:18:10;;;;;;;16.00;8.70;;;;;;;11.28;87.13;99462.39;106233;1270;109069;-77
2022/10/02 07:20:53;;;;;;;10.80;8.50;;;;;;;11.30;87.19;99465.80;106296;1270;97835;-77
2022/10/02 07:23:43;;;;;;;11.30;9.00;;;;;;;11.35;87.26;99468.20;106224;1271;98113;-77
2022/10/02 07:26:28;;;;;;;14.00;8.40;;;;;;;11.40;87.36;99468.80;106052;1271;138351;-76
2022/10/02 07:29:13;;;;;;;12.00;8.00;;;;;;;11.46;87.15;99466.58;106079;1273;107667;-77
2022/10/02 07:31:59;;;;;;;11.00;8.10;;;;;;;11.52;86.94;99471.20;105990;1273;138867;-77
2022/10/02 07:34:44;;;;;;;13.10;7.90;;;;;;;11.58;86.91;99472.31;106062;1271;97851;-75
2022/10/02 07:37:25;;;;;;;9.30;7.00;;;;;;;11.63;86.77;99468.04;105996;1273;138586;-76
2022/10/02 07:40:17;;;;;;;10.10;6.40;;;;;;;11.68;86.58;99470.92;106038;1274;111952;-76
2022/10/02 07:43:02;;;;;;;8.70;6.10;;;;;;;11.70;86.19;99475.52;105941;1274;138981;-75
2022/10/02 07:45:40;;;;;;;8.90;5.50;;;;;;;11.73;86.04;99471.18;106182;1273;108958;-74
2022/10/02 07:48:28;;;;;;;10.10;5.50;;;;;;;11.75;85.91;99479.09;105882;1274;138960;-75
2022/10/02 07:54:33;;;;;;;9.50;5.10;;;;;;;11.79;85.65;99479.79;105917;1274;139274;-74
2022/10/02 07:57:29;;;;;;;11.70;4.90;;;;;;;11.82;85.57;99483.15;106032;1274;108885;-76
2022/10/02 08:00:06;;;;;;;12.50;5.10;;;;;;;11.83;85.34;99486.39;106094;1272;109207;-75
2022/10/02 08:02:51;;;;;;;7.90;4.30;;;;;;;11.84;85.28;99480.41;107076;1274;98053;-77
2022/10/02 08:05:29;;;;;;;5.90;3.80;;;;;;;11.85;85.09;99482.48;106077;1272;97746;-75
2022/10/02 08:08:07;;;;;;;6.30;4.00;;;;;;;11.84;84.78;99482.72;105992;1273;138420;-75
2022/10/02 08:10:43;;;;;;;9.60;3.70;;;;;;;11.84;84.66;99486.86;107179;1273;108812;-75
2022/10/02 08:13:20;;;;;;;7.20;3.30;;;;;;;11.88;84.68;99487.76;106052;1271;138352;-76
2022/10/02 08:15:56;;;;;;;8.00;3.20;;;;;;;11.90;84.40;99489.20;106203;1273;97882;-75
2022/10/02 08:18:34;;;;;;;6.50;3.10;;;;;;;11.92;84.31;99490.15;106022;1273;138783;-75
2022/10/02 08:21:14;;;;;;;10.10;3.60;;;;;;;11.94;84.22;99489.16;106101;1272;111317;-76
2022/10/02 08:23:53;;;;;;;6.60;3.10;;;;;;;11.97;84.11;99491.60;105999;1274;107867;-76
2022/10/02 08:26:30;;;;;;;5.70;2.80;;;;;;;11.98;83.79;99490.50;105986;1272;138486;-74
2022/10/02 08:29:15;;;;;;;8.20;2.90;;;;;;;11.99;83.46;99490.67;106130;1271;97863;-75
2022/10/02 08:31:49;;;;;;;8.20;2.90;;;;;;;11.99;83.23;99489.23;106054;1271;138675;-75
2022/10/02 08:34:23;;;;;;;5.80;2.60;;;;;;;11.99;82.91;99496.38;107720;1272;111466;-76
2022/10/02 08:37:17;;;;;;;9.40;2.60;;;;;;;12.02;82.77;99496.27;106273;1270;139816;-76
2022/10/02 08:40:23;;;;;;;11.10;2.70;;;;;;;12.05;82.75;99492.83;106106;1272;109077;-73
2022/10/02 08:43:55;;;;;;;10.30;3.40;;;;;;;12.13;82.69;99497.48;105993;1271;138620;-75
2022/10/02 08:47:01;;;;;;;8.90;2.80;;;;;;;12.24;82.57;99498.31;105781;1279;97940;-73
2022/10/02 08:50:05;;;;;;;9.40;3.10;;;;;;;12.32;82.18;99500.31;105612;1277;138956;-74
2022/10/02 08:53:08;;;;;;;10.80;2.90;;;;;;;12.48;82.31;99501.25;105799;1278;108947;-75
2022/10/02 08:56:02;;;;;;;6.30;2.50;;;;;;;12.65;81.91;99504.86;105640;1278;139379;-73
2022/10/02 08:59:12;;;;;;;12.40;2.70;;;;;;;12.84;81.53;99502.31;105774;1277;97863;-76
2022/10/02 09:02:18;;;;;;;9.40;2.80;;;;;;;12.99;80.51;99497.30;105723;1278;138504;-76
2022/10/02 09:05:39;;;;;;;8.80;2.30;;;;;;;13.11;80.00;99498.55;105752;1278;111579;-75
2022/10/02 09:08:32;;;;;;;13.30;2.60;;;;;;;13.25;79.26;99494.48;105609;1279;138966;-74
2022/10/02 09:11:36;;;;;;;7.30;2.20;;;;;;;13.44;78.90;99499.24;105814;1278;107423;-75
2022/10/02 09:14:41;;;;;;;8.90;2.60;;;;;;;13.80;78.56;99490.72;105613;1278;138413;-72
2022/10/02 09:17:32;;;;;;;9.80;2.40;;;;;;;14.09;77.51;99487.32;105888;1274;97853;-74
2022/10/02 09:20:42;;;;;;;11.80;2.50;;;;;;;14.27;77.01;99484.11;105937;1273;139417;-75
2022/10/02 09:23:47;;;;;;;8.40;2.30;;;;;;;14.45;76.07;99482.55;106070;1274;109127;-74
2022/10/02 09:26:32;;;;;;;8.10;2.40;;;;;;;14.51;75.34;99485.29;106007;1273;138494;-73
2022/10/02 09:29:59;;;;;;;7.30;1.80;;;;;;;14.49;74.77;99481.77;106109;1273;97879;-74
2022/10/02 09:33:08;;;;;;;9.00;2.50;;;;;;;14.42;74.32;99486.41;105999;1273;137979;-75
2022/10/02 09:36:23;;;;;;;8.40;2.20;;;;;;;14.33;74.14;99487.60;105762;1278;112771;-74
2022/10/02 09:39:31;;;;;;;6.50;2.10;;;;;;;14.24;74.06;99488.50;105486;1281;108844;-73
2022/10/02 09:42:34;;;;;;;10.30;3.10;;;;;;;14.18;73.97;99492.90;105307;1282;109101;-74
2022/10/02 09:45:42;;;;;;;7.90;2.30;;;;;;;14.20;74.15;99488.59;105356;1284;97864;-75
2022/10/02 09:48:47;;;;;;;10.10;2.50;;;;;;;14.47;73.93;99488.39;105405;1281;140549;-72
2022/10/02 09:51:50;;;;;;;9.70;2.20;;;;;;;14.84;73.96;99485.77;105486;1282;111450;-72
2022/10/02 09:55:01;;;;;;;5.90;2.40;;;;;;;15.51;73.89;99476.46;105367;1281;140041;-73
2022/10/02 09:58:04;;;;;;;5.90;1.90;;;;;;;16.13;73.68;99470.11;105459;1281;109236;-73
2022/10/02 10:01:01;;;;;;;8.30;2.00;;;;;;;16.83;72.18;99460.40;106768;1282;139362;-73
2022/10/02 10:03:59;;;;;;;7.60;2.00;;;;;;;17.11;70.05;99463.66;105315;1283;97905;-74
2022/10/02 10:06:59;;;;;;;8.80;2.00;;;;;;;17.19;68.28;99463.24;105182;1284;140126;-74
2022/10/02 10:10:03;;;;;;;6.00;2.10;;;;;;;17.42;67.84;99459.30;105353;1281;108920;-73
2022/10/02 10:13:19;;;;;;;6.70;1.70;;;;;;;17.45;66.88;99451.67;105317;1281;139041;-74
2022/10/02 10:16:30;;;;;;;7.00;1.60;;;;;;;17.30;66.23;99454.40;105752;1274;97838;-74
2022/10/02 10:19:45;;;;;;;4.20;1.70;;;;;;;17.48;66.30;99448.47;106067;1273;139673;-73
2022/10/02 10:22:50;;;;;;;6.70;1.70;;;;;;;17.98;64.51;99440.36;105730;1279;112704;-72
2022/10/02 10:25:42;;;;;;;10.20;1.80;;;;;;;18.06;63.66;99439.21;105622;1279;138735;-75
2022/10/02 10:28:55;;;;;;;7.00;1.40;;;;;;;18.10;62.82;99430.95;105809;1279;107859;-75
2022/10/02 10:32:08;;;;;;;5.90;1.40;;;;;;;18.39;62.82;99441.64;105662;1278;138218;-75
2022/10/02 10:35:19;;;;;;;9.20;1.60;;;;;;;18.69;61.80;99441.42;105707;1280;97840;-76
2022/10/02 10:38:33;;;;;;;6.90;1.90;;;;;;;18.99;61.09;99445.59;105577;1278;137802;-78
2022/10/02 10:41:27;;;;;;;6.70;1.40;;;;;;;19.36;60.25;99439.75;105832;1277;109288;-76
2022/10/02 10:44:31;;;;;;;6.50;1.30;;;;;;;19.54;59.98;99445.20;105728;1277;138796;-78
2022/10/02 10:47:26;;;;;;;7.90;1.60;;;;;;;19.42;58.68;99440.18;105790;1277;98169;-76
2022/10/02 10:50:17;;;;;;;11.60;1.60;;;;;;;19.08;57.88;99442.23;105677;1278;137514;-76
2022/10/02 10:53:15;;;;;;;6.70;1.80;;;;;;;18.57;57.44;99446.39;105826;1276;111475;-74
2022/10/02 10:56:19;;;;;;;4.00;1.70;;;;;;;18.02;58.65;99462.08;105733;1277;137852;-75
2022/10/02 10:59:08;;;;;;;3.90;1.60;;;;;;;17.45;59.80;99466.65;105953;1272;107423;-75
2022/10/02 11:01:55;;;;;;;6.70;1.70;;;;;;;16.93;61.06;99468.83;105989;1271;137617;-75
2022/10/02 11:05:05;;;;;;;4.80;2.30;;;;;;;16.51;61.92;99471.91;106095;1273;98049;-76
2022/10/02 11:07:57;;;;;;;6.10;2.20;;;;;;;16.13;63.02;99467.97;105939;1273;138288;-76
2022/10/02 11:10:42;;;;;;;6.00;2.20;;;;;;;16.05;64.27;99462.05;106190;1272;108932;-77
2022/10/02 11:13:29;;;;;;;7.30;2.40;;;;;;;16.33;65.16;99462.95;106038;1273;140223;-76
2022/10/02 11:16:39;;;;;;;7.50;2.20;;;;;;;16.62;65.49;99457.41;106075;1273;97885;-76
2022/10/02 11:19:42;;;;;;;7.00;2.30;;;;;;;16.73;64.93;99452.47;105682;1277;138369;-76
2022/10/02 11:22:55;;;;;;;6.50;2.60;;;;;;;16.60;64.91;99456.83;105801;1277;111660;-74
2022/10/02 11:25:43;;;;;;;10.80;2.60;;;;;;;16.42;64.77;99458.49;105665;1277;138606;-74
2022/10/02 11:28:38;;;;;;;6.80;2.20;;;;;;;16.28;65.22;99459.39;105771;1278;108904;-74
2022/10/02 11:31:23;;;;;;;4.70;2.00;;;;;;;16.11;65.38;99454.27;105689;1277;138364;-75
2022/10/02 11:34:23;;;;;;;6.30;2.40;;;;;;;15.90;65.52;99460.58;105755;1277;97840;-75
2022/10/02 11:37:06;;;;;;;6.80;2.30;;;;;;;15.74;66.27;99459.04;105674;1277;138519;-75
2022/10/02 11:39:59;;;;;;;8.20;2.40;;;;;;;15.60;66.30;99454.10;105788;1277;108485;-75
2022/10/02 11:43:12;;;;;;;5.90;2.40;;;;;;;15.48;66.53;99452.31;105691;1277;138735;-75
2022/10/02 11:46:01;;;;;;;7.80;1.90;;;;;;;15.41;66.62;99450.27;105245;1284;97869;-73
2022/10/02 11:48:59;;;;;;;7.10;2.30;;;;;;;15.36;66.60;99451.84;105253;1283;140232;-76
2022/10/02 11:51:52;;;;;;;5.10;2.30;;;;;;;15.31;66.44;99456.38;105333;1284;113382;-76
2022/10/02 11:54:50;;;;;;;7.60;2.30;;;;;;;15.21;66.23;99451.41;105285;1284;138783;-76
2022/10/02 11:57:24;;;;;;;;;;;;;;;15.07;66.11;99451.39;105595;1276;106192;-75
2022/10/02 12:00:14;;;;;;;5.20;2.10;;;;;;;14.96;66.34;99453.52;106953;1278;96121;-76
2022/10/02 12:03:02;;;;;;;10.30;1.90;;;;;;;14.87;66.41;99455.10;105999;1277;96433;-76
2022/10/02 12:05:47;;;;;;;7.20;1.90;;;;;;;14.81;66.23;99460.06;105720;1278;112658;-76
2022/10/02 12:08:30;;;;;;;8.80;2.20;;;;;;;14.73;65.96;99462.80;105956;1278;138515;-76
2022/10/02 12:11:11;;;;;;;6.10;2.20;;;;;;;14.59;66.08;99467.04;105717;1279;108957;-76
2022/10/02 12:14:00;;;;;;;7.40;2.50;;;;;;;14.40;66.65;99470.08;106083;1278;138431;-75
2022/10/02 12:16:47;;;;;;;6.60;2.20;;;;;;;14.19;67.03;99466.94;105712;1278;97817;-75
2022/10/02 12:19:35;;;;;;;8.30;3.00;;;;;;;14.01;67.86;99469.95;105575;1279;139044;-76
2022/10/02 12:28:31;;;;;;;10.00;3.40;;;;;;;13.70;69.66;99458.13;105934;1275;97847;-75
2022/10/02 12:31:14;;;;;;;9.40;3.90;;;;;;;13.68;69.91;99455.79;106353;1273;138502;-76
2022/10/02 12:34:00;;;;;;;5.80;2.60;;;;;;;13.70;70.18;99452.67;106045;1273;113073;-75
2022/10/02 12:36:47;;;;;;;8.30;2.50;;;;;;;13.80;70.48;99450.71;105943;1273;137819;-76
2022/10/02 12:39:40;;;;;;;7.10;2.40;;;;;;;13.85;70.32;99442.23;106006;1274;108808;-74
2022/10/02 12:42:33;;;;;;;8.60;2.70;;;;;;;13.83;70.29;99439.20;107069;1273;139501;-74
2022/10/02 12:45:34;;;;;;;8.50;2.90;;;;;;;13.80;70.25;99440.55;106007;1275;97887;-76
2022/10/02 12:48:17;;;;;;;8.80;3.40;;;;;;;13.75;70.53;99438.56;106024;1274;111515;-76
2022/10/02 12:51:04;;;;;;;7.60;2.90;;;;;;;13.73;70.66;99442.02;106034;1274;108926;-74